createdAt,value
2017-11-09T00:01:49.974Z,82.24
2017-11-09T00:04:23.087Z,82.09
2017-11-09T00:06:50.632Z,82.14
2017-11-09T00:09:18.329Z,82.24
2017-11-09T00:11:45.828Z,82.09
2017-11-09T00:14:13.364Z,81.99
2017-11-09T00:16:40.855Z,82.10
2017-11-09T00:19:08.355Z,82.24
2017-11-09T00:21:35.888Z,82.13
2017-11-09T00:24:03.373Z,82.11
2017-11-09T00:26:30.870Z,82.10
2017-11-09T00:28:58.432Z,82.28
2017-11-09T00:31:25.921Z,82.47
2017-11-09T00:33:53.417Z,82.40
2017-11-09T00:36:21.085Z,82.28
2017-11-09T00:38:48.581Z,82.16
2017-11-09T00:41:16.197Z,82.50
2017-11-09T00:43:43.723Z,82.28
2017-11-09T00:46:11.217Z,82.46
2017-11-09T00:48:38.725Z,82.54
2017-11-09T00:51:06.241Z,82.62
2017-11-09T00:53:33.732Z,82.71
2017-11-09T00:56:01.336Z,82.81
2017-11-09T00:58:28.846Z,82.25
2017-11-09T01:00:56.361Z,82.38
2017-11-09T01:03:23.901Z,82.24
2017-11-09T01:05:51.405Z,82.47
2017-11-09T01:08:18.915Z,82.56
2017-11-09T01:10:46.472Z,82.45
2017-11-09T01:13:13.957Z,82.21
2017-11-09T01:15:41.450Z,82.17
2017-11-09T01:18:09.168Z,82.22
2017-11-09T01:20:36.657Z,82.20
2017-11-09T01:23:04.141Z,82.38
2017-11-09T01:25:31.797Z,82.46
2017-11-09T01:27:59.291Z,82.43
2017-11-09T01:30:26.777Z,82.21
2017-11-09T01:32:54.341Z,82.03
2017-11-09T01:35:21.876Z,82.07
2017-11-09T01:37:49.450Z,82.31
2017-11-09T01:40:16.952Z,82.35
2017-11-09T01:42:44.561Z,82.49
2017-11-09T01:45:12.125Z,82.37
2017-11-09T01:47:39.613Z,82.53
2017-11-09T01:50:07.128Z,82.44
2017-11-09T01:52:34.692Z,82.77
2017-11-09T01:55:02.228Z,83.11
2017-11-09T01:57:29.811Z,83.29
2017-11-09T01:59:57.301Z,83.27
2017-11-09T02:02:25.040Z,83.12
2017-11-09T02:04:52.548Z,83.20
2017-11-09T02:07:20.034Z,83.17
2017-11-09T02:09:47.614Z,83.17
2017-11-09T02:12:15.104Z,83.18
2017-11-09T02:14:42.598Z,82.79
2017-11-09T02:17:10.113Z,82.89
2017-11-09T02:19:37.744Z,82.97
2017-11-09T02:22:05.322Z,83.24
2017-11-09T02:24:32.861Z,83.19
2017-11-09T02:27:00.402Z,83.13
2017-11-09T02:29:27.974Z,82.99
2017-11-09T02:31:55.465Z,83.13
2017-11-09T02:34:22.995Z,83.09
2017-11-09T02:36:50.508Z,82.92
2017-11-09T02:39:18.010Z,83.16
2017-11-09T02:41:45.549Z,83.06
2017-11-09T02:44:13.042Z,82.92
2017-11-09T02:46:40.546Z,83.07
2017-11-09T02:49:08.084Z,82.93
2017-11-09T02:51:35.574Z,82.85
2017-11-09T02:54:03.072Z,82.93
2017-11-09T02:56:30.589Z,82.83
2017-11-09T02:58:58.087Z,82.51
2017-11-09T03:01:25.577Z,82.11
2017-11-09T03:03:53.112Z,82.74
2017-11-09T03:06:20.601Z,83.15
2017-11-09T03:08:48.112Z,83.33
2017-11-09T03:11:15.654Z,83.09
2017-11-09T03:13:43.151Z,83.33
2017-11-09T03:16:10.688Z,83.61
2017-11-09T03:18:38.217Z,83.52
2017-11-09T03:21:05.712Z,83.44
2017-11-09T03:23:33.264Z,83.07
2017-11-09T03:26:00.805Z,83.03
2017-11-09T03:28:28.301Z,83.02
2017-11-09T03:30:55.808Z,83.09
2017-11-09T03:33:23.340Z,83.15
2017-11-09T03:35:50.838Z,83.25
2017-11-09T03:38:18.409Z,83.28
2017-11-09T03:40:45.945Z,83.26
2017-11-09T03:43:13.437Z,83.38
2017-11-09T03:45:40.925Z,83.06
2017-11-09T03:48:08.470Z,83.08
2017-11-09T03:50:35.956Z,83.12
2017-11-09T03:53:03.464Z,82.91
2017-11-09T03:55:31.024Z,82.72
2017-11-09T03:57:58.516Z,82.77
2017-11-09T04:00:26.139Z,82.44
2017-11-09T04:02:53.630Z,82.26
2017-11-09T04:05:21.156Z,82.36
2017-11-09T04:07:48.823Z,82.21
2017-11-09T04:10:16.308Z,82.41
2017-11-09T04:12:43.855Z,82.48
2017-11-09T04:15:11.492Z,82.69
2017-11-09T04:17:39.054Z,82.66
2017-11-09T04:20:13.732Z,82.54
2017-11-09T04:22:41.223Z,82.71
2017-11-09T04:25:08.818Z,82.83
2017-11-09T04:27:36.564Z,83.00
2017-11-09T04:30:04.120Z,82.71
2017-11-09T04:32:31.686Z,82.92
2017-11-09T04:34:59.225Z,82.80
2017-11-09T04:37:26.722Z,82.31
2017-11-09T04:39:54.212Z,82.33
2017-11-09T04:42:21.744Z,82.06
2017-11-09T04:44:49.238Z,81.88
2017-11-09T04:47:16.735Z,81.78
2017-11-09T04:49:44.390Z,81.46
2017-11-09T04:52:11.897Z,81.46
2017-11-09T04:54:39.385Z,81.85
2017-11-09T04:57:06.916Z,82.20
2017-11-09T04:59:34.396Z,82.21
2017-11-09T05:02:01.980Z,82.18
2017-11-09T05:04:29.640Z,81.90
2017-11-09T05:06:57.131Z,81.76
2017-11-09T05:09:24.619Z,81.69
2017-11-09T05:11:52.331Z,81.85
2017-11-09T05:14:19.889Z,82.25
2017-11-09T05:16:47.378Z,82.36
2017-11-09T05:19:14.916Z,82.58
2017-11-09T05:21:42.457Z,82.25
2017-11-09T05:24:09.952Z,82.17
2017-11-09T05:26:37.683Z,81.87
2017-11-09T05:29:05.179Z,81.70
2017-11-09T05:31:32.701Z,81.66
2017-11-09T05:34:00.260Z,81.70
2017-11-09T05:36:27.753Z,82.20
2017-11-09T05:38:55.241Z,81.75
2017-11-09T05:41:22.778Z,82.03
2017-11-09T05:43:50.270Z,81.68
2017-11-09T05:46:17.855Z,81.56
2017-11-09T05:48:45.404Z,81.69
2017-11-09T05:51:12.904Z,81.83
2017-11-09T05:53:40.423Z,81.73
2017-11-09T05:56:08.081Z,81.77
2017-11-09T05:58:35.650Z,81.43
2017-11-09T06:01:03.143Z,81.70
2017-11-09T06:03:30.676Z,81.90
2017-11-09T06:05:58.168Z,81.86
2017-11-09T06:08:25.662Z,81.88
2017-11-09T06:10:53.234Z,82.06
2017-11-09T06:13:20.728Z,81.86
2017-11-09T06:15:48.210Z,81.50
2017-11-09T06:18:15.733Z,81.50
2017-11-09T06:20:43.225Z,81.57
2017-11-09T06:23:10.720Z,81.13
2017-11-09T06:25:38.284Z,81.52
2017-11-09T06:28:05.780Z,81.71
2017-11-09T06:30:33.269Z,81.80
2017-11-09T06:33:00.862Z,81.48
2017-11-09T06:35:28.363Z,81.39
2017-11-09T06:37:55.857Z,81.41
2017-11-09T06:40:23.456Z,81.11
2017-11-09T06:42:50.944Z,81.24
2017-11-09T06:45:18.424Z,81.16
2017-11-09T06:47:46.117Z,81.11
2017-11-09T06:50:13.608Z,80.84
2017-11-09T06:52:41.129Z,80.86
2017-11-09T06:55:08.647Z,80.87
2017-11-09T06:57:36.136Z,80.79
2017-11-09T07:00:03.677Z,80.84
2017-11-09T07:02:31.174Z,80.74
2017-11-09T07:04:58.741Z,80.80
2017-11-09T07:07:26.269Z,81.29
2017-11-09T07:09:53.757Z,81.36
2017-11-09T07:12:21.248Z,81.49
2017-11-09T07:14:48.770Z,81.48
2017-11-09T07:17:16.410Z,81.80
2017-11-09T07:19:43.897Z,81.84
2017-11-09T07:22:11.532Z,82.01
2017-11-09T07:24:39.101Z,81.96
2017-11-09T07:27:06.592Z,82.06
2017-11-09T07:29:34.243Z,81.84
2017-11-09T07:32:01.733Z,81.97
2017-11-09T07:34:29.224Z,81.88
2017-11-09T07:36:56.790Z,81.92
2017-11-09T07:39:24.277Z,81.53
2017-11-09T07:41:51.785Z,81.45
2017-11-09T07:44:19.330Z,81.87
2017-11-09T07:46:46.830Z,81.66
2017-11-09T07:49:14.401Z,82.15
2017-11-09T07:51:41.948Z,81.66
2017-11-09T07:54:09.441Z,81.46
2017-11-09T07:56:36.926Z,81.47
2017-11-09T07:59:04.473Z,81.10
2017-11-09T08:01:31.960Z,81.09
2017-11-09T08:03:59.444Z,81.24
2017-11-09T08:06:26.967Z,81.71
2017-11-09T08:08:54.562Z,81.96
2017-11-09T08:11:22.113Z,82.38
2017-11-09T08:13:49.637Z,82.15
2017-11-09T08:16:17.132Z,82.15
2017-11-09T08:18:44.800Z,81.93
2017-11-09T08:21:12.290Z,81.98
2017-11-09T08:23:39.827Z,81.59
2017-11-09T08:26:10.541Z,81.57
2017-11-09T08:28:42.434Z,81.76
2017-11-09T08:31:12.792Z,81.52
2017-11-09T08:33:41.572Z,81.58
2017-11-09T08:36:09.075Z,81.42
2017-11-09T08:38:36.832Z,81.43
2017-11-09T08:41:04.403Z,81.55
2017-11-09T08:43:31.963Z,81.09
2017-11-09T08:45:59.481Z,81.96
2017-11-09T08:48:27.014Z,82.13
2017-11-09T08:50:54.517Z,81.96
2017-11-09T08:53:22.111Z,81.42
2017-11-09T08:55:49.658Z,80.78
2017-11-09T08:58:17.231Z,80.65
2017-11-09T09:00:44.722Z,80.64
2017-11-09T09:03:12.330Z,81.11
2017-11-09T09:05:39.830Z,81.31
2017-11-09T09:08:07.355Z,81.40
2017-11-09T09:10:34.888Z,81.31
2017-11-09T09:13:02.375Z,80.97
2017-11-09T09:15:29.896Z,80.72
2017-11-09T09:17:57.387Z,80.40
2017-11-09T09:20:25.660Z,80.57
2017-11-09T09:22:53.305Z,80.31
2017-11-09T09:25:26.512Z,80.58
2017-11-09T09:27:57.613Z,80.40
2017-11-09T09:30:25.916Z,80.12
2017-11-09T09:32:54.852Z,80.21
2017-11-09T09:35:26.840Z,80.73
2017-11-09T09:38:00.616Z,80.73
2017-11-09T09:40:30.472Z,81.08
2017-11-09T09:42:57.960Z,81.12
2017-11-09T09:45:25.485Z,81.10
2017-11-09T09:47:53.020Z,81.14
2017-11-09T09:50:20.505Z,80.45
2017-11-09T09:52:47.989Z,80.30
2017-11-09T09:55:15.568Z,80.21
2017-11-09T09:57:43.057Z,80.12
2017-11-09T10:00:10.546Z,80.24
2017-11-09T10:02:38.083Z,79.87
2017-11-09T10:05:05.677Z,80.06
2017-11-09T10:07:33.199Z,80.47
2017-11-09T10:10:00.805Z,80.45
2017-11-09T10:12:28.292Z,80.40
2017-11-09T10:14:55.784Z,80.31
2017-11-09T10:17:23.379Z,80.81
2017-11-09T10:19:50.877Z,80.68
2017-11-09T10:22:18.366Z,79.76
2017-11-09T10:24:45.904Z,80.08
2017-11-09T10:27:13.392Z,80.14
2017-11-09T10:29:40.890Z,80.25
2017-11-09T10:32:08.420Z,80.49
2017-11-09T10:34:35.908Z,80.63
2017-11-09T10:37:03.406Z,80.78
2017-11-09T10:39:30.927Z,80.74
2017-11-09T10:41:58.461Z,80.66
2017-11-09T10:44:25.945Z,80.36
2017-11-09T10:46:53.481Z,80.23
2017-11-09T10:49:21.149Z,80.37
2017-11-09T10:51:48.637Z,80.56
2017-11-09T10:54:16.132Z,80.78
2017-11-09T10:56:43.652Z,80.68
2017-11-09T10:59:11.198Z,80.60
2017-11-09T11:01:38.722Z,80.45
2017-11-09T11:04:06.217Z,80.59
2017-11-09T11:06:33.728Z,80.77
2017-11-09T11:09:02.166Z,80.97
2017-11-09T11:11:29.656Z,81.20
2017-11-09T11:13:57.161Z,80.72
2017-11-09T11:16:24.701Z,80.71
2017-11-09T11:18:52.188Z,80.54
2017-11-09T11:21:19.669Z,80.64
2017-11-09T11:23:47.197Z,80.85
2017-11-09T11:26:14.690Z,80.58
2017-11-09T11:28:42.208Z,80.74
2017-11-09T11:31:09.914Z,80.75
2017-11-09T11:33:37.436Z,80.87
2017-11-09T11:36:04.985Z,80.93
2017-11-09T11:38:32.533Z,81.08
2017-11-09T11:41:00.028Z,80.90
2017-11-09T11:43:27.557Z,80.74
2017-11-09T11:45:55.076Z,80.84
2017-11-09T11:48:22.676Z,80.91
2017-11-09T11:50:50.324Z,80.82
2017-11-09T11:53:17.820Z,81.36
2017-11-09T11:55:45.349Z,81.06
2017-11-09T11:58:12.876Z,81.13
2017-11-09T12:00:40.364Z,81.17
2017-11-09T12:03:11.850Z,81.06
2017-11-09T12:05:39.374Z,81.00
2017-11-09T12:08:06.865Z,80.89
2017-11-09T12:10:34.377Z,81.00
2017-11-09T12:13:01.913Z,81.25
2017-11-09T12:15:29.508Z,81.21
2017-11-09T12:17:57.010Z,81.52
2017-11-09T12:20:24.561Z,81.81
2017-11-09T12:22:52.059Z,81.48
2017-11-09T12:25:19.562Z,81.23
2017-11-09T12:27:47.301Z,81.39
2017-11-09T12:30:14.785Z,82.00
2017-11-09T12:32:42.290Z,81.92
2017-11-09T12:35:09.830Z,81.74
2017-11-09T12:37:37.341Z,81.65
2017-11-09T12:40:04.924Z,81.30
2017-11-09T12:42:32.565Z,80.97
2017-11-09T12:45:00.056Z,81.32
2017-11-09T12:47:27.550Z,81.39
2017-11-09T12:49:56.064Z,81.26
2017-11-09T12:52:23.560Z,81.11
2017-11-09T12:54:51.059Z,80.98
2017-11-09T12:57:18.593Z,81.15
2017-11-09T12:59:46.085Z,81.38
2017-11-09T13:02:13.579Z,81.38
2017-11-09T13:04:41.099Z,81.15
2017-11-09T13:07:08.602Z,81.48
2017-11-09T13:09:36.109Z,81.50
2017-11-09T13:12:03.661Z,81.63
2017-11-09T13:14:31.153Z,81.53
2017-11-09T13:16:58.709Z,81.45
2017-11-09T13:19:27.105Z,81.17
2017-11-09T13:21:54.592Z,81.21
2017-11-09T13:24:22.081Z,81.61
2017-11-09T13:26:49.602Z,81.85
2017-11-09T13:29:17.096Z,81.95
2017-11-09T13:31:44.592Z,81.82
2017-11-09T13:34:12.125Z,81.80
2017-11-09T13:36:39.712Z,81.82
2017-11-09T13:39:07.275Z,81.82
2017-11-09T13:41:34.812Z,81.79
2017-11-09T13:44:02.360Z,81.90
2017-11-09T13:46:29.932Z,82.13
2017-11-09T13:48:57.489Z,82.15
2017-11-09T13:51:24.991Z,82.29
2017-11-09T13:53:52.512Z,82.68
2017-11-09T13:56:20.078Z,82.40
2017-11-09T13:58:47.650Z,82.36
2017-11-09T14:01:15.198Z,82.61
2017-11-09T14:03:42.749Z,82.87
2017-11-09T14:06:10.328Z,82.92
2017-11-09T14:08:37.887Z,83.15
2017-11-09T14:11:08.392Z,83.35
2017-11-09T14:13:35.952Z,83.17
2017-11-09T14:16:03.448Z,83.41
2017-11-09T14:18:30.977Z,83.60
2017-11-09T14:20:58.473Z,83.37
2017-11-09T14:23:26.010Z,83.37
2017-11-09T14:25:53.565Z,83.25
2017-11-09T14:28:21.060Z,83.33
2017-11-09T14:30:48.869Z,83.32
2017-11-09T14:33:16.405Z,83.27
2017-11-09T14:35:43.909Z,83.23
2017-11-09T14:38:11.452Z,83.01
2017-11-09T14:40:39.028Z,83.26
2017-11-09T14:43:06.570Z,83.16
2017-11-09T14:45:34.065Z,83.43
2017-11-09T14:48:01.788Z,83.53
2017-11-09T14:50:29.277Z,83.89
2017-11-09T14:52:56.768Z,83.48
2017-11-09T14:55:24.300Z,83.57
2017-11-09T14:57:51.818Z,83.78
2017-11-09T15:00:19.308Z,83.17
2017-11-09T15:02:46.841Z,83.45
2017-11-09T15:05:14.407Z,83.10
2017-11-09T15:07:41.953Z,83.33
2017-11-09T15:10:09.489Z,83.46
2017-11-09T15:12:37.078Z,83.67
2017-11-09T15:15:04.575Z,84.11
2017-11-09T15:17:32.099Z,84.04
2017-11-09T15:19:59.596Z,84.23
2017-11-09T15:22:27.133Z,84.04
2017-11-09T15:24:54.627Z,84.18
2017-11-09T15:27:22.116Z,84.32
2017-11-09T15:29:49.789Z,84.42
2017-11-09T15:32:17.282Z,84.78
2017-11-09T15:34:44.781Z,85.01
2017-11-09T15:37:12.382Z,84.93
2017-11-09T15:39:39.877Z,85.10
2017-11-09T15:42:07.382Z,85.02
2017-11-09T15:44:34.924Z,85.28
2017-11-09T15:47:02.516Z,85.40
2017-11-09T15:49:30.009Z,85.51
2017-11-09T15:51:57.560Z,85.49
2017-11-09T15:54:25.091Z,85.62
2017-11-09T15:56:52.578Z,85.69
2017-11-09T15:59:20.129Z,85.72
2017-11-09T16:01:47.652Z,85.78
2017-11-09T16:04:15.149Z,85.93
2017-11-09T16:06:45.185Z,86.18
2017-11-09T16:09:12.781Z,85.94
2017-11-09T16:11:40.352Z,85.99
2017-11-09T16:14:07.900Z,85.94
2017-11-09T16:16:35.459Z,85.85
2017-11-09T16:19:02.955Z,85.87
2017-11-09T16:21:30.685Z,85.79
2017-11-09T16:23:58.249Z,85.79
2017-11-09T16:26:26.675Z,86.07
2017-11-09T16:28:59.789Z,85.83
2017-11-09T16:31:27.276Z,85.85
2017-11-09T16:33:54.825Z,85.72
2017-11-09T16:36:22.387Z,85.89
2017-11-09T16:38:49.892Z,85.75
2017-11-09T16:41:17.387Z,85.61
2017-11-09T16:43:44.924Z,85.59
2017-11-09T16:46:12.421Z,85.48
2017-11-09T16:48:39.918Z,85.49
2017-11-09T16:51:07.449Z,85.56
2017-11-09T16:53:34.960Z,85.66
2017-11-09T16:56:02.460Z,85.74
2017-11-09T16:58:30.929Z,85.97
2017-11-09T17:00:58.432Z,85.94
2017-11-09T17:03:25.973Z,85.97
2017-11-09T17:05:53.609Z,86.27
2017-11-09T17:08:21.113Z,86.32
2017-11-09T17:10:49.085Z,86.28
2017-11-09T17:13:16.577Z,86.10
2017-11-09T17:15:44.082Z,86.19
2017-11-09T17:21:09.834Z,86.42
2017-11-09T17:23:37.355Z,86.47
2017-11-09T17:26:04.853Z,86.27
2017-11-09T17:28:32.344Z,86.56
2017-11-09T17:30:59.943Z,86.70
2017-11-09T17:33:27.478Z,86.63
2017-11-09T17:35:55.044Z,86.75
2017-11-09T17:38:22.710Z,86.53
2017-11-09T17:40:50.261Z,86.39
2017-11-09T17:43:17.809Z,86.48
2017-11-09T17:45:45.352Z,86.38
2017-11-09T17:48:12.850Z,86.23
2017-11-09T17:50:40.392Z,86.09
2017-11-09T17:53:07.932Z,85.84
2017-11-09T17:55:35.512Z,85.90
2017-11-09T17:58:03.014Z,85.92
2017-11-09T18:00:30.527Z,86.05
2017-11-09T18:02:58.064Z,85.16
2017-11-09T18:05:25.557Z,85.25
2017-11-09T18:07:53.101Z,85.26
2017-11-09T18:10:20.663Z,84.45
2017-11-09T18:12:48.228Z,84.58
2017-11-09T18:15:15.732Z,85.03
2017-11-09T18:17:43.264Z,85.31
2017-11-09T18:20:10.754Z,85.50
2017-11-09T18:22:38.257Z,85.64
2017-11-09T18:25:05.804Z,85.63
2017-11-09T18:27:33.397Z,85.55
2017-11-09T18:30:00.889Z,85.68
2017-11-09T18:32:28.415Z,85.48
2017-11-09T18:34:55.939Z,85.60
2017-11-09T18:37:23.436Z,85.66
2017-11-09T18:39:50.933Z,85.62
2017-11-09T18:42:18.525Z,85.58
2017-11-09T18:44:46.021Z,85.70
2017-11-09T18:47:13.545Z,85.37
2017-11-09T18:49:41.088Z,85.49
2017-11-09T18:52:08.576Z,85.54
2017-11-09T18:54:36.221Z,84.94
2017-11-09T18:57:03.801Z,84.89
2017-11-09T18:59:31.322Z,85.03
2017-11-09T19:01:58.813Z,85.18
2017-11-09T19:04:26.337Z,85.13
2017-11-09T19:06:53.829Z,85.13
2017-11-09T19:09:21.372Z,85.12
2017-11-09T19:11:48.892Z,85.19
2017-11-09T19:14:16.385Z,85.20
2017-11-09T19:16:43.880Z,85.19
2017-11-09T19:19:11.426Z,85.14
2017-11-09T19:21:38.953Z,84.96
2017-11-09T19:24:06.453Z,85.04
2017-11-09T19:26:34.003Z,84.97
2017-11-09T19:29:01.535Z,85.06
2017-11-09T19:31:29.105Z,85.09
2017-11-09T19:33:56.596Z,85.02
2017-11-09T19:36:24.140Z,85.02
2017-11-09T19:38:51.632Z,85.02
2017-11-09T19:41:19.153Z,85.25
2017-11-09T19:43:46.795Z,85.32
2017-11-09T19:46:14.294Z,85.31
2017-11-09T19:48:41.934Z,85.20
2017-11-09T19:51:09.471Z,85.09
2017-11-09T19:53:36.965Z,85.25
2017-11-09T19:56:04.456Z,85.26
2017-11-09T19:58:31.989Z,85.14
2017-11-09T20:00:59.488Z,85.12
2017-11-09T20:03:26.992Z,85.16
2017-11-09T20:05:54.545Z,85.27
2017-11-09T20:08:22.039Z,85.29
2017-11-09T20:10:49.663Z,85.40
2017-11-09T20:13:17.408Z,85.14
2017-11-09T20:15:44.981Z,85.05
2017-11-09T20:18:12.524Z,85.09
2017-11-09T20:20:40.065Z,85.10
2017-11-09T20:23:07.554Z,85.00
2017-11-09T20:25:35.101Z,84.89
2017-11-09T20:28:02.637Z,84.98
2017-11-09T20:30:30.136Z,84.87
2017-11-09T20:32:57.680Z,84.95
2017-11-09T20:35:25.228Z,85.09
2017-11-09T20:37:52.807Z,85.18
2017-11-09T20:40:20.320Z,85.13
2017-11-09T20:42:47.881Z,84.83
2017-11-09T20:45:15.376Z,84.82
2017-11-09T20:47:42.952Z,84.75
2017-11-09T20:50:10.510Z,84.95
2017-11-09T20:52:37.997Z,84.57
2017-11-09T20:55:05.508Z,84.52
2017-11-09T20:57:33.071Z,84.58
2017-11-09T21:00:00.620Z,84.53
2017-11-09T21:02:28.175Z,84.49
2017-11-09T21:04:55.739Z,84.75
2017-11-09T21:07:23.230Z,84.62
2017-11-09T21:09:50.723Z,84.49
2017-11-09T21:12:18.321Z,84.53
2017-11-09T21:14:45.877Z,84.86
2017-11-09T21:17:13.441Z,84.53
2017-11-09T21:19:40.984Z,84.40
2017-11-09T21:22:08.548Z,84.06
2017-11-09T21:24:36.121Z,84.17
2017-11-09T21:27:03.781Z,84.01
2017-11-09T21:29:31.354Z,84.08
2017-11-09T21:31:58.892Z,83.87
2017-11-09T21:34:26.473Z,83.97
2017-11-09T21:36:53.997Z,83.89
2017-11-09T21:39:21.590Z,83.84
2017-11-09T21:41:49.131Z,83.79
2017-11-09T21:44:16.655Z,83.30
2017-11-09T21:46:44.170Z,83.85
2017-11-09T21:49:11.709Z,83.81
2017-11-09T21:51:39.260Z,84.00
2017-11-09T21:54:06.757Z,84.30
2017-11-09T21:56:34.252Z,84.59
2017-11-09T21:59:01.793Z,84.97
2017-11-09T22:01:29.290Z,84.85
2017-11-09T22:03:56.878Z,85.07
2017-11-09T22:06:24.538Z,85.31
2017-11-09T22:08:52.034Z,85.26
2017-11-09T22:11:19.608Z,85.37
2017-11-09T22:13:47.135Z,85.33
2017-11-09T22:16:14.624Z,85.18
2017-11-09T22:18:42.131Z,85.42
2017-11-09T22:21:09.664Z,85.42
2017-11-09T22:23:37.164Z,85.51
2017-11-09T22:26:04.669Z,85.32
2017-11-09T22:28:32.195Z,85.27
2017-11-09T22:30:59.691Z,85.11
2017-11-09T22:33:27.268Z,85.05
2017-11-09T22:35:54.920Z,84.83
2017-11-09T22:38:22.422Z,84.87
2017-11-09T22:40:49.921Z,85.05
2017-11-09T22:43:17.452Z,84.75
2017-11-09T22:45:44.956Z,84.82
2017-11-09T22:48:12.462Z,84.88
2017-11-09T22:50:40.032Z,84.78
2017-11-09T22:53:07.525Z,84.54
2017-11-09T22:55:35.021Z,84.38
2017-11-09T22:58:02.582Z,84.53
2017-11-09T23:00:30.125Z,84.76
2017-11-09T23:02:57.696Z,84.37
2017-11-09T23:05:25.362Z,84.48
2017-11-09T23:07:52.899Z,84.54
2017-11-09T23:10:20.430Z,84.76
2017-11-09T23:12:48.006Z,84.63
2017-11-09T23:15:15.536Z,84.39
2017-11-09T23:17:43.065Z,84.14
2017-11-09T23:20:10.649Z,84.11
2017-11-09T23:22:38.174Z,83.67
2017-11-09T23:25:05.709Z,83.40
2017-11-09T23:27:33.390Z,83.06
2017-11-09T23:30:00.969Z,83.14
2017-11-09T23:32:28.497Z,83.06
2017-11-09T23:34:56.055Z,82.65
2017-11-09T23:37:23.639Z,82.73
2017-11-09T23:39:51.206Z,82.82
2017-11-09T23:42:18.750Z,82.57
2017-11-09T23:44:46.310Z,82.54
2017-11-09T23:47:13.913Z,82.69
2017-11-09T23:49:41.451Z,82.24
2017-11-09T23:52:08.978Z,82.71
2017-11-09T23:54:36.575Z,82.30
2017-11-09T23:57:04.118Z,82.50
2017-11-09T23:59:31.670Z,82.69
